Helenville, Wisconsin
Current Conditions -  °F | °C
As of 4:55 PM on Saturday 25 Oct 2014 (Local Time) from KRYV Reporting Station
Clear Clear  
Wind Chill: 64°   Ceiling: Unl
Heat Index: 64°   Visibility: 10mi
Dew Point: 26°   Wind: 17mph
Humidity: 24%   Direction: 300°WNW
Pressure: 29.9"   Gusts: 24mph
Location:  43.01°N, 88.7°W
Report Text: KRYV 252155Z AUTO 30015G21KT 10SM CLR 18/M03 A2990 RMK AO2 T01801031
Loading
Personal Weather Stations






























Interactive Weather Map
Tropical Storm Tracking
New forecast layout! Learn more

10-Day Weather Forecast

Advertisements
Track Severe Weather on mobile